Time;durP1;ratioP1;P1;durP2;ratioP2;P2;SDS_P1;SDS_P2;PMS_P1;PMS_P2;Temp;Humidity;BMP_temperature;BMP_pressure;BME280_temperature;BME280_humidity;BME280_pressure;Samples;Min_cycle;Max_cycle;Signal;HPM_P1;HPM_P2
2021/10/16 00:02:07;;;;;;;7.53;3.73;;;;;;;7.51;83.91;98998.07;2132586;84;20970;-82
2021/10/16 00:05:08;;;;;;;8.93;3.90;;;;;;;7.45;84.33;99003.52;2103392;85;20989;-82
2021/10/16 00:08:08;;;;;;;7.17;3.80;;;;;;;7.35;84.64;99009.77;2133062;84;21005;-84
2021/10/16 00:11:09;;;;;;;10.00;4.00;;;;;;;7.28;84.74;99021.25;2103438;85;21024;-83
2021/10/16 00:14:09;;;;;;;6.87;3.97;;;;;;;7.21;84.52;99016.72;2132077;84;20977;-82
2021/10/16 00:17:10;;;;;;;7.43;4.17;;;;;;;7.15;84.72;99016.13;2102031;85;21001;-83
2021/10/16 00:20:10;;;;;;;12.13;4.70;;;;;;;7.16;84.81;99023.08;2132328;84;20997;-81
2021/10/16 00:23:11;;;;;;;9.40;3.60;;;;;;;7.18;84.46;99021.83;2102480;85;20981;-81
2021/10/16 00:26:11;;;;;;;8.57;3.93;;;;;;;7.21;84.79;99020.61;2123697;84;20998;-82
2021/10/16 00:29:12;;;;;;;11.27;3.60;;;;;;;7.25;84.80;99027.66;2060364;87;20985;-82
2021/10/16 00:32:12;;;;;;;9.43;5.30;;;;;;;7.30;85.10;99024.77;2060076;87;20950;-83
2021/10/16 00:35:13;;;;;;;9.40;5.00;;;;;;;7.32;85.47;99029.58;2060580;87;20938;-81
2021/10/16 00:38:13;;;;;;;11.97;4.90;;;;;;;7.34;85.92;99035.28;2060236;87;20959;-82
2021/10/16 00:41:14;;;;;;;11.27;4.57;;;;;;;7.37;85.78;99033.60;2060344;86;20990;-83
2021/10/16 00:44:14;;;;;;;10.13;4.50;;;;;;;7.40;85.57;99043.66;2060904;86;20984;-81
2021/10/16 00:47:15;;;;;;;12.50;4.10;;;;;;;7.42;85.35;99044.99;2138136;83;21340;-82
2021/10/16 00:50:16;;;;;;;13.03;4.00;;;;;;;7.43;85.16;99041.14;2138428;83;20936;-83
2021/10/16 00:53:16;;;;;;;7.53;3.80;;;;;;;7.44;85.57;99050.69;2137091;83;20974;-82
2021/10/16 00:56:17;;;;;;;9.37;4.67;;;;;;;7.47;85.03;99040.39;2060034;87;20961;-83
2021/10/16 00:59:17;;;;;;;21.53;6.73;;;;;;;7.46;85.42;99045.12;2060149;87;21004;-82
2021/10/16 01:02:19;;;;;;;11.67;5.30;;;;;;;7.45;85.83;99050.27;2060086;86;20945;-82
2021/10/16 01:05:20;;;;;;;11.00;5.83;;;;;;;7.43;85.37;99041.14;2136965;83;21060;-81
2021/10/16 01:08:21;;;;;;;10.70;5.13;;;;;;;7.45;85.45;99051.57;2136912;83;21114;-81
2021/10/16 01:11:21;;;;;;;16.33;5.90;;;;;;;7.44;85.86;99054.59;2136841;83;20934;-81
2021/10/16 01:14:22;;;;;;;12.43;5.80;;;;;;;7.44;85.84;99048.52;2137870;83;20957;-82
2021/10/16 01:17:23;;;;;;;11.27;5.60;;;;;;;7.43;85.52;99050.65;2060514;87;21021;-82
2021/10/16 01:20:23;;;;;;;14.03;5.43;;;;;;;7.44;85.59;99053.29;2059745;87;20934;-81
2021/10/16 01:23:23;;;;;;;12.23;5.63;;;;;;;7.44;85.49;99048.09;2059869;87;21120;-81
2021/10/16 01:26:24;;;;;;;15.03;5.97;;;;;;;7.48;85.27;99055.13;2073132;85;20993;-82
2021/10/16 01:29:25;;;;;;;15.47;5.57;;;;;;;7.53;85.84;99053.95;2131148;84;21349;-81
2021/10/16 01:32:25;;;;;;;12.37;5.93;;;;;;;7.54;85.25;99045.33;2101214;85;20981;-81
2021/10/16 01:35:26;;;;;;;15.70;7.43;;;;;;;7.56;85.52;99051.02;2131197;84;20957;-82
2021/10/16 01:38:26;;;;;;;13.37;7.40;;;;;;;7.56;85.28;99051.02;2101381;85;20956;-82
2021/10/16 01:41:27;;;;;;;14.37;7.00;;;;;;;7.55;85.34;99048.38;2130986;84;20977;-81
2021/10/16 01:44:27;;;;;;;11.33;6.33;;;;;;;7.54;85.16;99047.50;2101457;85;21381;-82
2021/10/16 01:47:28;;;;;;;15.73;7.03;;;;;;;7.53;85.69;99053.54;2130942;83;20989;-80
2021/10/16 01:50:28;;;;;;;18.00;6.77;;;;;;;7.52;85.22;99046.59;2101486;85;20985;-80
2021/10/16 01:53:28;;;;;;;12.10;6.63;;;;;;;7.53;86.00;99050.94;2131505;84;20974;-82
2021/10/16 01:56:29;;;;;;;12.73;6.30;;;;;;;7.52;85.59;99049.19;2101453;85;20989;-82
2021/10/16 01:59:30;;;;;;;27.77;7.17;;;;;;;7.53;85.68;99056.55;2131132;84;20941;-81
2021/10/16 02:02:30;;;;;;;13.87;6.30;;;;;;;7.55;85.73;99054.88;2101586;85;20933;-81
2021/10/16 02:05:31;;;;;;;9.50;5.80;;;;;;;7.54;85.45;99055.30;2131416;84;20993;-81
2021/10/16 02:08:31;;;;;;;14.03;7.07;;;;;;;7.56;85.48;99065.31;2101440;85;21325;-80
2021/10/16 02:11:32;;;;;;;14.17;6.57;;;;;;;7.59;85.29;99067.11;2131016;84;20938;-83
2021/10/16 02:14:32;;;;;;;15.73;6.87;;;;;;;7.61;85.35;99075.83;2101641;85;20985;-81
2021/10/16 02:17:32;;;;;;;16.30;6.50;;;;;;;7.61;85.23;99074.11;2130984;84;20985;-81
2021/10/16 02:20:33;;;;;;;14.43;7.47;;;;;;;7.64;85.32;99079.80;2101188;85;20942;-81
2021/10/16 02:23:33;;;;;;;14.00;7.07;;;;;;;7.64;85.18;99077.21;2130913;84;20946;-81
2021/10/16 02:26:34;;;;;;;13.10;7.13;;;;;;;7.64;85.17;99081.98;2099224;85;21396;-81
2021/10/16 02:29:34;;;;;;;15.93;7.67;;;;;;;7.66;85.14;99089.41;2175810;82;20941;-81
2021/10/16 02:32:35;;;;;;;16.33;6.50;;;;;;;7.67;85.08;99096.36;2175910;82;21040;-81
2021/10/16 02:35:36;;;;;;;16.77;6.30;;;;;;;7.70;85.02;99089.48;2175791;82;21360;-81
2021/10/16 02:38:36;;;;;;;15.77;6.50;;;;;;;7.71;85.09;99086.92;2175903;82;20925;-82
2021/10/16 02:41:37;;;;;;;11.97;7.03;;;;;;;7.73;85.00;99084.38;2176074;82;20909;-81
2021/10/16 02:44:37;;;;;;;19.60;7.03;;;;;;;7.74;84.90;99093.50;2175926;82;20973;-81
2021/10/16 02:47:38;;;;;;;16.13;6.90;;;;;;;7.74;84.72;99107.80;2095823;85;21000;-81
2021/10/16 02:50:38;;;;;;;16.17;6.10;;;;;;;7.76;84.62;99098.74;2095652;85;20929;-81
2021/10/16 02:53:39;;;;;;;12.30;5.97;;;;;;;7.75;84.40;99110.86;2095383;85;20941;-80
2021/10/16 02:56:39;;;;;;;13.17;6.30;;;;;;;7.78;84.33;99115.25;2095519;85;21329;-82
2021/10/16 02:59:40;;;;;;;13.63;6.07;;;;;;;7.79;84.18;99111.41;2095706;85;21353;-83
2021/10/16 03:02:40;;;;;;;17.93;6.30;;;;;;;7.83;83.97;99109.80;2095950;85;20966;-82
2021/10/16 03:05:41;;;;;;;14.60;5.80;;;;;;;7.82;83.93;99117.13;2095676;85;20961;-81
2021/10/16 03:08:41;;;;;;;17.17;5.90;;;;;;;7.79;83.78;99114.42;2095982;85;20929;-81
2021/10/16 03:11:42;;;;;;;20.53;6.10;;;;;;;7.80;83.78;99114.49;2095649;85;20944;-81
2021/10/16 03:14:42;;;;;;;23.73;7.20;;;;;;;7.79;83.76;99115.72;2095645;85;20945;-81
2021/10/16 03:17:43;;;;;;;14.87;7.23;;;;;;;7.78;83.65;99116.55;2095566;85;21024;-81
2021/10/16 03:20:44;;;;;;;19.20;6.50;;;;;;;7.77;83.50;99120.88;2095634;85;20950;-81
2021/10/16 03:23:44;;;;;;;19.60;6.67;;;;;;;7.77;83.45;99126.48;2095688;85;21301;-81
2021/10/16 03:26:45;;;;;;;15.50;6.57;;;;;;;7.77;83.62;99132.56;2083566;85;21393;-81
2021/10/16 03:29:45;;;;;;;12.10;6.10;;;;;;;7.79;83.55;99133.91;2147207;82;20950;-80
2021/10/16 03:32:46;;;;;;;15.53;6.17;;;;;;;7.81;83.65;99141.36;2147199;82;20918;-81
2021/10/16 03:35:49;;;;;;;14.10;7.87;;;;;;;7.80;83.55;99138.27;2146933;83;20946;-80
2021/10/16 03:38:49;;;;;;;19.40;10.53;;;;;;;7.79;83.46;99140.41;2146807;83;20979;-81
2021/10/16 03:41:50;;;;;;;20.37;8.23;;;;;;;7.91;83.79;99142.95;2147056;83;20934;-80
2021/10/16 03:44:50;;;;;;;19.77;9.63;;;;;;;7.93;83.43;99141.27;2146936;83;21005;-80
2021/10/16 03:47:51;;;;;;;82.13;36.53;;;;;;;7.93;83.43;99140.39;2147110;82;21005;-78
2021/10/16 03:50:51;;;;;;;22.67;11.27;;;;;;;8.05;84.33;99136.82;2146995;82;20938;-79
2021/10/16 03:53:52;;;;;;;18.90;10.13;;;;;;;8.07;83.43;99136.86;2146539;83;21338;-78
2021/10/16 03:56:52;;;;;;;13.43;10.60;;;;;;;8.03;83.38;99142.82;2146064;82;21002;-78
2021/10/16 03:59:53;;;;;;;15.63;7.73;;;;;;;7.97;83.38;99143.12;2146190;83;21306;-79
2021/10/16 04:02:57;;;;;;;20.33;6.40;;;;;;;7.95;83.47;99136.11;2146745;82;21356;-78
2021/10/16 04:05:56;;;;;;;14.07;6.23;;;;;;;7.91;83.32;99140.77;2146379;83;21398;-78
2021/10/16 04:08:56;;;;;;;21.87;7.00;;;;;;;7.89;83.35;99142.03;2146442;82;20978;-78
2021/10/16 04:11:57;;;;;;;21.27;7.03;;;;;;;7.89;83.36;99142.45;2146436;82;21310;-79
2021/10/16 04:14:58;;;;;;;24.63;7.23;;;;;;;7.89;83.13;99143.75;2146144;83;21330;-79
2021/10/16 04:17:59;;;;;;;22.97;10.53;;;;;;;7.87;83.05;99145.43;2145848;83;21157;-79
2021/10/16 04:21:00;;;;;;;18.03;9.17;;;;;;;7.89;83.18;99141.16;2145957;83;21330;-77
2021/10/16 04:24:00;;;;;;;20.93;8.47;;;;;;;7.93;83.23;99142.99;2145854;83;21317;-78
2021/10/16 04:27:01;;;;;;;20.50;8.50;;;;;;;7.94;83.12;99137.84;2147721;82;21005;-79
2021/10/16 04:30:01;;;;;;;15.53;7.53;;;;;;;7.94;83.11;99144.33;2151077;83;20952;-78
2021/10/16 04:33:02;;;;;;;18.07;8.90;;;;;;;7.92;83.09;99146.44;2150510;83;20981;-78
2021/10/16 04:36:03;;;;;;;19.17;8.83;;;;;;;7.92;83.23;99149.03;2151071;83;20929;-78
2021/10/16 04:39:03;;;;;;;11.73;8.10;;;;;;;7.93;83.19;99150.79;2057470;87;20990;-78
2021/10/16 04:42:04;;;;;;;23.97;8.90;;;;;;;7.94;83.11;99149.95;2150141;82;21294;-78
2021/10/16 04:45:04;;;;;;;18.77;9.47;;;;;;;7.98;83.14;99159.59;2150602;83;20969;-78
2021/10/16 04:48:05;;;;;;;20.40;6.43;;;;;;;8.01;83.24;99158.80;2150123;83;21001;-78
2021/10/16 04:51:05;;;;;;;17.30;5.83;;;;;;;8.04;83.25;99161.48;2150537;83;20993;-78
2021/10/16 04:54:06;;;;;;;24.80;6.37;;;;;;;8.02;83.05;99164.03;2150784;83;20942;-79
2021/10/16 04:57:06;;;;;;;21.67;7.27;;;;;;;7.99;82.96;99166.13;2151410;83;20958;-80
2021/10/16 05:00:07;;;;;;;14.47;7.60;;;;;;;8.01;83.31;99170.49;2151324;83;20981;-79
2021/10/16 05:03:07;;;;;;;15.53;8.07;;;;;;;8.03;83.14;99173.59;2151933;83;21305;-79
2021/10/16 05:06:08;;;;;;;13.00;7.77;;;;;;;8.06;83.11;99171.08;2151559;83;21601;-79
2021/10/16 05:09:08;;;;;;;22.93;7.20;;;;;;;8.06;83.12;99171.08;2151061;83;20930;-79
2021/10/16 05:12:09;;;;;;;12.87;6.63;;;;;;;8.11;82.94;99177.28;2151835;83;20950;-80
2021/10/16 05:15:09;;;;;;;11.40;4.90;;;;;;;8.11;82.89;99171.20;2151741;83;21163;-79
2021/10/16 05:18:10;;;;;;;15.50;5.07;;;;;;;8.10;82.71;99176.82;2151946;83;20998;-79
2021/10/16 05:21:10;;;;;;;13.97;4.83;;;;;;;8.10;82.88;99179.42;2151543;83;20949;-80
2021/10/16 05:24:11;;;;;;;15.37;5.37;;;;;;;8.13;82.97;99177.32;2151498;83;20939;-79
2021/10/16 05:27:11;;;;;;;15.63;5.60;;;;;;;8.13;82.78;99174.30;2151691;82;20954;-78
2021/10/16 05:30:12;;;;;;;14.63;7.17;;;;;;;8.15;82.82;99183.44;2151663;83;21332;-79
2021/10/16 05:33:12;;;;;;;16.37;7.10;;;;;;;8.14;82.76;99177.78;2151929;83;21346;-80
2021/10/16 05:36:13;;;;;;;16.27;7.13;;;;;;;8.13;82.71;99184.70;2152347;83;21108;-80
2021/10/16 05:39:13;;;;;;;24.07;9.23;;;;;;;8.15;82.79;99190.83;2152578;83;20950;-80
2021/10/16 05:42:14;;;;;;;17.37;9.67;;;;;;;8.16;82.88;99187.80;2152556;83;20954;-80
2021/10/16 05:45:15;;;;;;;20.13;10.17;;;;;;;8.17;82.63;99191.75;2151763;83;21145;-79
2021/10/16 05:48:15;;;;;;;18.97;12.00;;;;;;;8.16;82.61;99195.61;2059606;87;21025;-80
2021/10/16 05:51:16;;;;;;;17.70;10.97;;;;;;;8.20;82.63;99201.35;2152044;82;21136;-80
2021/10/16 05:54:16;;;;;;;22.00;11.30;;;;;;;8.25;82.68;99206.25;2151849;83;21287;-79
2021/10/16 05:57:17;;;;;;;24.13;10.10;;;;;;;8.26;82.60;99197.19;2152250;83;20954;-80
2021/10/16 06:00:17;;;;;;;19.13;11.47;;;;;;;8.32;82.58;99201.67;2152031;83;20946;-81
2021/10/16 06:03:18;;;;;;;23.83;9.93;;;;;;;8.37;82.65;99209.63;2152398;83;20989;-79
2021/10/16 06:06:18;;;;;;;22.10;10.57;;;;;;;8.47;82.64;99199.92;2151531;83;20934;-78
2021/10/16 06:09:18;;;;;;;21.83;9.93;;;;;;;8.49;82.26;99204.75;2151581;83;21370;-79
2021/10/16 06:12:21;;;;;;;22.30;11.03;;;;;;;8.56;82.33;99201.45;2132159;83;21321;-80
2021/10/16 06:15:21;;;;;;;24.27;11.00;;;;;;;8.52;81.94;99205.70;2150668;83;20982;-79
2021/10/16 06:18:24;;;;;;;24.83;12.07;;;;;;;8.60;82.12;99208.50;2151176;83;20986;-80
2021/10/16 06:21:24;;;;;;;23.30;10.50;;;;;;;8.61;82.02;99208.96;2151361;83;20964;-79
2021/10/16 06:24:25;;;;;;;29.40;10.47;;;;;;;8.68;81.88;99210.91;2151685;83;20938;-79
2021/10/16 06:27:26;;;;;;;21.33;10.03;;;;;;;8.70;81.70;99217.03;2151955;82;20979;-79
2021/10/16 06:30:27;;;;;;;25.47;9.80;;;;;;;8.75;81.47;99219.33;2058899;86;21321;-78
2021/10/16 06:33:27;;;;;;;21.80;9.17;;;;;;;8.80;81.22;99217.72;2151890;83;20950;-79
2021/10/16 06:36:28;;;;;;;29.83;11.70;;;;;;;8.75;80.85;99221.93;2152192;83;21022;-81
2021/10/16 06:39:28;;;;;;;22.40;10.90;;;;;;;8.67;80.98;99226.45;2152173;83;20946;-79
2021/10/16 06:42:29;;;;;;;27.10;11.00;;;;;;;8.75;81.33;99232.34;2151948;83;20962;-80
2021/10/16 06:45:29;;;;;;;26.43;10.17;;;;;;;8.93;80.80;99236.70;2151879;83;21017;-79
2021/10/16 06:48:30;;;;;;;23.37;9.50;;;;;;;9.03;80.51;99242.13;2151843;83;21354;-80
2021/10/16 06:51:30;;;;;;;21.93;11.17;;;;;;;9.10;80.06;99242.73;2152379;83;21373;-80
2021/10/16 06:54:31;;;;;;;27.37;10.37;;;;;;;9.17;79.88;99244.64;2151959;83;20945;-79
2021/10/16 06:57:31;;;;;;;27.13;12.33;;;;;;;9.22;80.11;99250.42;2152012;83;20938;-80
2021/10/16 07:00:32;;;;;;;21.93;11.87;;;;;;;9.29;79.80;99245.36;2152215;83;20969;-79
2021/10/16 07:03:32;;;;;;;27.70;11.43;;;;;;;9.23;79.70;99249.58;2152353;83;20950;-79
2021/10/16 07:09:35;;;;;;;17.77;8.80;;;;;;;9.51;79.04;99261.52;2048968;87;21033;-80
2021/10/16 07:12:36;;;;;;;27.50;9.90;;;;;;;9.69;78.28;99266.71;2152381;82;20930;-79
2021/10/16 07:15:36;;;;;;;23.37;10.10;;;;;;;9.76;77.75;99260.78;2059351;87;20954;-80
2021/10/16 07:18:37;;;;;;;21.57;9.50;;;;;;;9.76;78.03;99264.69;2152252;83;21392;-79
2021/10/16 07:21:37;;;;;;;19.70;8.00;;;;;;;9.80;77.90;99273.03;2151947;83;20942;-80
2021/10/16 07:24:38;;;;;;;20.17;8.60;;;;;;;9.85;77.45;99271.41;2152235;83;20950;-79
2021/10/16 07:27:38;;;;;;;15.23;7.23;;;;;;;9.90;77.33;99268.05;2159767;82;20972;-79
2021/10/16 07:30:39;;;;;;;16.60;7.30;;;;;;;9.89;76.10;99274.11;2181168;82;20956;-81
2021/10/16 07:33:39;;;;;;;17.60;7.20;;;;;;;9.85;75.47;99281.41;2181797;82;20924;-79
2021/10/16 07:36:40;;;;;;;19.13;8.30;;;;;;;9.87;75.82;99285.36;2181646;82;21355;-80
2021/10/16 07:39:40;;;;;;;19.03;7.97;;;;;;;9.86;75.49;99289.69;2181685;82;21324;-80
2021/10/16 07:42:44;;;;;;;22.40;7.87;;;;;;;9.85;74.82;99296.17;2181876;82;20945;-79
2021/10/16 07:45:44;;;;;;;16.67;8.07;;;;;;;9.78;75.10;99300.37;2181645;82;21004;-80
2021/10/16 07:48:45;;;;;;;21.63;8.07;;;;;;;9.68;73.81;99305.35;2181058;82;21005;-81
2021/10/16 07:51:45;;;;;;;22.80;8.33;;;;;;;9.48;74.41;99299.23;2101346;85;20933;-79
2021/10/16 07:54:46;;;;;;;16.10;7.00;;;;;;;9.44;74.15;99303.03;2130421;84;20984;-80
2021/10/16 07:57:47;;;;;;;19.63;6.70;;;;;;;9.44;74.87;99304.33;2101004;85;20985;-79
2021/10/16 08:00:47;;;;;;;15.73;6.50;;;;;;;9.52;74.14;99305.39;2130477;84;20981;-80
2021/10/16 08:03:49;;;;;;;17.00;5.60;;;;;;;9.67;73.51;99310.11;2100862;85;20953;-79
2021/10/16 08:06:50;;;;;;;21.87;5.17;;;;;;;9.80;72.62;99308.23;2130610;84;21432;-79
2021/10/16 08:09:50;;;;;;;15.80;6.00;;;;;;;9.90;71.03;99316.72;2101280;85;20953;-81
2021/10/16 08:12:51;;;;;;;20.07;6.07;;;;;;;9.92;70.63;99308.92;2131211;84;20925;-80
2021/10/16 08:15:51;;;;;;;16.27;6.10;;;;;;;9.94;70.15;99315.94;2101287;85;20949;-80
2021/10/16 08:18:52;;;;;;;20.20;6.77;;;;;;;9.94;70.63;99311.14;2130634;84;21009;-79
2021/10/16 08:21:53;;;;;;;21.10;6.47;;;;;;;10.03;71.20;99320.05;2100839;85;21294;-79
2021/10/16 08:24:53;;;;;;;23.67;6.40;;;;;;;10.09;70.05;99326.70;2130007;84;21001;-82
2021/10/16 08:27:54;;;;;;;15.00;5.63;;;;;;;10.14;70.81;99322.45;2099302;85;21008;-79
2021/10/16 08:30:54;;;;;;;14.23;6.17;;;;;;;10.27;70.28;99333.18;2175167;82;20985;-81
2021/10/16 08:33:55;;;;;;;18.63;5.60;;;;;;;10.27;69.66;99337.98;2175451;82;20941;-79
2021/10/16 08:36:55;;;;;;;21.47;5.90;;;;;;;10.37;70.06;99341.66;2176113;82;21345;-78
2021/10/16 08:39:55;;;;;;;22.83;5.80;;;;;;;10.59;69.96;99333.86;2176074;82;20921;-80
2021/10/16 08:42:58;;;;;;;20.00;5.60;;;;;;;10.87;72.28;99334.83;2175561;82;20999;-81
2021/10/16 08:45:59;;;;;;;16.90;5.57;;;;;;;11.57;68.16;99337.37;2175661;82;20945;-81
2021/10/16 08:48:59;;;;;;;15.50;5.70;;;;;;;11.77;63.29;99348.13;2175600;82;20985;-80
2021/10/16 08:52:00;;;;;;;21.67;6.00;;;;;;;12.39;70.94;99335.09;2175645;82;20929;-80
2021/10/16 08:55:00;;;;;;;19.50;6.33;;;;;;;13.08;65.22;99342.00;2176050;82;20937;-79
2021/10/16 08:58:01;;;;;;;16.90;5.58;;;;;;;13.45;62.73;99335.37;2175768;82;20925;-80
2021/10/16 09:01:02;;;;;;;19.87;5.80;;;;;;;14.19;63.05;99340.70;2175653;82;21301;-80
2021/10/16 09:04:03;;;;;;;21.00;6.33;;;;;;;14.48;63.82;99339.12;2175890;82;21309;-80
2021/10/16 09:07:03;;;;;;;13.50;4.85;;;;;;;14.05;55.82;99350.25;2095975;85;21013;-80
2021/10/16 09:10:04;;;;;;;17.80;5.70;;;;;;;13.13;56.76;99349.91;2095634;85;21116;-80
2021/10/16 09:13:05;;;;;;;15.98;4.92;;;;;;;12.49;59.33;99350.48;2095910;85;20945;-79
2021/10/16 09:16:05;;;;;;;14.73;5.30;;;;;;;12.20;60.80;99360.58;2095449;85;21017;-80
2021/10/16 09:19:08;;;;;;;16.90;4.92;;;;;;;11.73;60.96;99361.59;2095619;85;21005;-80
2021/10/16 09:22:08;;;;;;;16.10;5.92;;;;;;;11.41;62.02;99363.69;2175622;82;21376;-80
2021/10/16 09:25:09;;;;;;;13.75;5.55;;;;;;;11.33;61.89;99363.98;2175934;82;20941;-79
2021/10/16 09:28:09;;;;;;;14.98;5.50;;;;;;;11.18;62.19;99365.00;2168828;81;21037;-79
2021/10/16 09:31:13;;;;;;;20.65;5.40;;;;;;;11.08;62.34;99362.65;2152598;83;20965;-79
2021/10/16 09:34:12;;;;;;;16.87;5.50;;;;;;;11.14;62.31;99363.19;2152019;82;20938;-80
2021/10/16 09:37:13;;;;;;;11.87;5.70;;;;;;;11.04;62.91;99366.48;2151536;83;21298;-78
2021/10/16 09:40:13;;;;;;;14.53;5.87;;;;;;;10.91;62.84;99368.42;2152098;83;21381;-78
2021/10/16 09:43:14;;;;;;;17.37;5.20;;;;;;;10.92;63.98;99367.14;2152228;83;20970;-78
2021/10/16 09:46:14;;;;;;;21.63;5.80;;;;;;;11.16;62.31;99373.23;2151521;83;21013;-79
2021/10/16 09:49:14;;;;;;;20.37;5.50;;;;;;;11.40;60.79;99371.08;2152022;83;20980;-80
2021/10/16 09:52:15;;;;;;;22.42;6.15;;;;;;;11.68;60.63;99369.80;2151830;83;20930;-79
2021/10/16 09:55:16;;;;;;;17.67;6.45;;;;;;;12.00;58.62;99365.50;2151757;83;21344;-79
2021/10/16 09:58:16;;;;;;;15.93;6.42;;;;;;;12.31;59.81;99367.72;2151948;83;21317;-80
2021/10/16 10:01:16;;;;;;;19.02;5.60;;;;;;;12.47;59.73;99368.79;2151702;83;20977;-79
2021/10/16 10:04:18;;;;;;;21.30;5.30;;;;;;;12.43;57.93;99365.25;2151624;83;20926;-79
2021/10/16 10:07:20;;;;;;;16.00;6.15;;;;;;;12.28;58.75;99364.17;2058511;86;21396;-78
2021/10/16 10:13:26;;;;;;;17.10;5.58;;;;;;;11.89;57.43;99371.89;2049165;87;21010;-79
2021/10/16 10:16:25;;;;;;;18.70;6.08;;;;;;;11.73;56.78;99373.78;2151424;82;21401;-79
2021/10/16 10:19:25;;;;;;;12.70;5.10;;;;;;;11.84;57.93;99372.25;2151621;83;21032;-79
2021/10/16 10:22:26;;;;;;;16.87;5.58;;;;;;;11.88;57.92;99373.17;2152780;83;20929;-80
2021/10/16 10:25:27;;;;;;;20.27;5.70;;;;;;;11.92;57.27;99377.59;2152435;83;20978;-78
2021/10/16 10:28:27;;;;;;;20.70;6.75;;;;;;;11.89;57.05;99367.97;2070178;85;20993;-79
2021/10/16 10:31:28;;;;;;;14.40;6.05;;;;;;;11.93;57.68;99362.34;2095710;85;20998;-79
2021/10/16 10:34:29;;;;;;;13.53;6.03;;;;;;;12.19;57.53;99366.67;2095661;85;21404;-79
2021/10/16 10:37:29;;;;;;;17.55;5.90;;;;;;;12.25;54.88;99360.21;2094989;85;21012;-78
2021/10/16 10:40:32;;;;;;;16.95;5.58;;;;;;;12.27;56.20;99361.11;2095892;85;20937;-80
2021/10/16 10:43:32;;;;;;;17.55;5.85;;;;;;;12.48;56.07;99359.20;2095768;85;20926;-78
2021/10/16 10:46:33;;;;;;;14.85;4.58;;;;;;;12.47;54.39;99358.31;2095864;85;21028;-80
2021/10/16 10:49:33;;;;;;;16.52;5.62;;;;;;;12.27;54.94;99365.92;2095830;85;21080;-79
2021/10/16 10:52:34;;;;;;;11.03;4.55;;;;;;;12.11;55.83;99355.64;2095545;85;20964;-80
2021/10/16 10:55:34;;;;;;;20.27;6.60;;;;;;;11.88;55.14;99355.74;2095356;85;21361;-79
2021/10/16 10:58:35;;;;;;;13.28;5.60;;;;;;;11.61;55.99;99356.59;2095252;85;20949;-79
2021/10/16 11:01:35;;;;;;;19.15;6.22;;;;;;;11.44;57.04;99357.20;2094765;85;20937;-80
2021/10/16 11:04:36;;;;;;;23.35;7.85;;;;;;;11.43;57.70;99355.45;2094931;85;21305;-79
2021/10/16 11:07:46;;;;;;;21.48;6.58;;;;;;;11.53;58.18;99356.91;2094913;85;21002;-80
2021/10/16 11:10:47;;;;;;;14.95;5.35;;;;;;;11.53;56.93;99349.06;2094851;85;21141;-78
2021/10/16 11:13:47;;;;;;;18.85;6.55;;;;;;;11.55;56.71;99348.23;2095283;85;20989;-79
2021/10/16 11:16:48;;;;;;;20.73;7.33;;;;;;;11.48;57.29;99343.76;2095923;85;20950;-79
2021/10/16 11:19:48;;;;;;;17.87;6.62;;;;;;;11.53;57.32;99342.52;2095243;85;21033;-79
2021/10/16 11:22:49;;;;;;;18.37;6.87;;;;;;;11.49;57.39;99338.98;2095914;85;20957;-80
2021/10/16 11:25:50;;;;;;;19.35;6.25;;;;;;;11.45;58.15;99343.28;2095499;85;21024;-80
2021/10/16 11:28:50;;;;;;;15.35;5.62;;;;;;;11.34;57.76;99340.92;2097438;85;21340;-80
2021/10/16 11:31:54;;;;;;;22.37;7.33;;;;;;;11.23;58.38;99327.19;2131079;84;21333;-78
2021/10/16 11:34:55;;;;;;;22.37;8.15;;;;;;;11.20;58.83;99331.94;2101325;85;21333;-79
2021/10/16 11:37:55;;;;;;;23.67;6.13;;;;;;;11.27;58.88;99332.52;2131002;84;20958;-79
2021/10/16 11:40:58;;;;;;;15.90;5.80;;;;;;;11.19;58.78;99334.09;2101134;85;20957;-80
2021/10/16 11:43:58;;;;;;;20.05;6.40;;;;;;;11.25;58.82;99330.28;2131190;84;20941;-79
2021/10/16 11:46:59;;;;;;;14.80;5.93;;;;;;;11.57;58.71;99325.60;2101498;85;21005;-79
2021/10/16 11:50:00;;;;;;;18.48;7.17;;;;;;;11.72;58.66;99326.27;2130972;83;21008;-80
2021/10/16 11:53:01;;;;;;;18.32;6.55;;;;;;;11.80;57.92;99329.91;2101559;85;20921;-80
2021/10/16 11:56:01;;;;;;;20.77;6.40;;;;;;;11.95;58.52;99320.96;2131298;84;20966;-80
2021/10/16 11:59:02;;;;;;;14.78;6.83;;;;;;;11.85;57.72;99319.08;2101465;85;20976;-79
2021/10/16 12:02:02;;;;;;;12.88;5.75;;;;;;;11.66;57.77;99329.66;2131171;84;20941;-78
2021/10/16 12:05:03;;;;;;;15.40;5.63;;;;;;;11.59;57.99;99328.23;2101666;85;20977;-79
2021/10/16 12:08:06;;;;;;;16.77;6.03;;;;;;;11.61;57.58;99321.30;2131437;84;21376;-80
2021/10/16 12:11:07;;;;;;;15.05;5.05;;;;;;;11.62;57.85;99329.17;2101483;85;21000;-80
2021/10/16 12:14:09;;;;;;;19.13;6.37;;;;;;;11.57;57.66;99324.72;2131413;84;21309;-80
2021/10/16 12:17:10;;;;;;;20.40;6.93;;;;;;;11.43;57.44;99325.81;2101800;85;21467;-80
2021/10/16 12:20:13;;;;;;;22.10;7.30;;;;;;;11.25;58.40;99322.44;2131105;84;21024;-81
2021/10/16 12:23:15;;;;;;;12.77;6.03;;;;;;;11.11;58.34;99326.12;2100375;85;21423;-81
2021/10/16 12:26:16;;;;;;;19.33;7.23;;;;;;;11.00;58.73;99323.75;2130976;84;20977;-80
2021/10/16 12:29:16;;;;;;;21.03;6.60;;;;;;;10.91;59.20;99321.41;2099070;85;20997;-80
2021/10/16 12:32:18;;;;;;;15.03;6.07;;;;;;;10.90;59.81;99326.17;2175571;82;20945;-80
2021/10/16 12:35:19;;;;;;;25.20;10.60;;;;;;;10.94;60.04;99326.26;2095650;85;20938;-79
2021/10/16 12:38:20;;;;;;;21.80;8.97;;;;;;;10.99;59.87;99324.61;2176201;82;20909;-80
2021/10/16 12:41:23;;;;;;;23.17;9.47;;;;;;;11.09;59.54;99326.53;2176446;82;20977;-81
2021/10/16 12:44:24;;;;;;;13.80;5.90;;;;;;;11.12;59.71;99325.70;2176101;82;21044;-78
2021/10/16 12:47:24;;;;;;;13.13;5.63;;;;;;;11.14;59.26;99326.61;2175956;82;20972;-81
2021/10/16 12:50:27;;;;;;;19.10;6.67;;;;;;;11.21;59.63;99328.47;2176060;82;21035;-81
2021/10/16 12:53:27;;;;;;;26.23;8.83;;;;;;;11.25;59.26;99323.75;2175997;82;21369;-80
2021/10/16 12:56:27;;;;;;;23.00;8.20;;;;;;;11.31;59.65;99326.92;2176366;82;20929;-80
2021/10/16 12:59:31;;;;;;;22.07;9.37;;;;;;;11.23;59.24;99318.04;2176301;82;21313;-81
2021/10/16 13:02:31;;;;;;;23.00;8.57;;;;;;;11.08;58.90;99326.50;2176359;82;20945;-80
2021/10/16 13:05:32;;;;;;;23.80;7.70;;;;;;;10.98;59.59;99328.50;2176240;82;20999;-81
2021/10/16 13:08:35;;;;;;;16.30;6.97;;;;;;;10.90;59.93;99322.26;2096276;85;20948;-80
2021/10/16 13:11:36;;;;;;;15.13;6.43;;;;;;;10.92;60.17;99323.16;2096126;85;20973;-80
2021/10/16 13:14:39;;;;;;;18.13;7.83;;;;;;;10.97;59.48;99329.34;2095937;85;20949;-79
2021/10/16 13:17:39;;;;;;;19.33;6.90;;;;;;;10.97;59.58;99322.39;2095523;85;20929;-81
2021/10/16 13:20:40;;;;;;;16.60;5.57;;;;;;;11.29;68.32;99322.09;2095329;85;21365;-81
2021/10/16 13:23:43;;;;;;;16.40;6.67;;;;;;;12.93;69.18;99316.48;2095486;85;20944;-81
2021/10/16 13:26:43;;;;;;;20.35;8.90;;;;;;;14.21;65.85;99309.64;2095779;85;21049;-80
2021/10/16 13:29:44;;;;;;;13.85;7.12;;;;;;;14.50;55.59;99315.48;2076818;84;20993;-79
2021/10/16 13:32:45;;;;;;;18.73;6.67;;;;;;;13.37;54.06;99314.33;2147453;82;20974;-80
2021/10/16 13:35:48;;;;;;;18.65;6.67;;;;;;;12.65;55.86;99319.25;2147403;83;21298;-80
2021/10/16 13:38:48;;;;;;;18.77;6.95;;;;;;;12.26;56.74;99320.09;2055154;87;20931;-80
2021/10/16 13:41:49;;;;;;;14.55;6.70;;;;;;;12.03;56.74;99323.69;2147648;82;20934;-79
2021/10/16 13:44:49;;;;;;;17.80;7.53;;;;;;;11.85;57.20;99321.69;2147470;83;21097;-79
2021/10/16 13:47:52;;;;;;;13.90;5.58;;;;;;;11.67;56.37;99321.39;2147400;83;20958;-80
2021/10/16 13:50:53;;;;;;;20.83;6.70;;;;;;;11.56;57.03;99314.69;2147066;83;21369;-80
2021/10/16 13:53:56;;;;;;;18.17;6.30;;;;;;;11.45;57.63;99318.45;2147398;82;21077;-79
2021/10/16 13:56:57;;;;;;;18.83;6.07;;;;;;;11.37;57.71;99322.67;2055010;87;21057;-79
2021/10/16 14:00:00;;;;;;;21.57;10.15;;;;;;;11.21;57.54;99311.91;2147344;82;20918;-79
2021/10/16 14:03:00;;;;;;;21.80;9.67;;;;;;;11.06;58.05;99319.94;2147439;83;20935;-80
2021/10/16 14:06:01;;;;;;;20.23;8.73;;;;;;;10.91;58.13;99325.32;2147484;82;21342;-80
2021/10/16 14:09:02;;;;;;;12.83;6.40;;;;;;;10.80;58.73;99320.78;2055344;87;21318;-79
2021/10/16 14:12:02;;;;;;;21.40;8.80;;;;;;;10.78;58.88;99324.22;2147703;82;20965;-80